Time;durP1;ratioP1;P1;durP2;ratioP2;P2;SDS_P1;SDS_P2;PMS_P1;PMS_P2;Temp;Humidity;BMP_temperature;BMP_pressure;BME280_temperature;BME280_humidity;BME280_pressure;Samples;Min_cycle;Max_cycle;Signal;HPM_P1;HPM_P2
2022/07/06 00:02:22;;;;;;;5.70;2.60;;;;;;;;;;5073343;28;20040;-63
2022/07/06 00:04:49;;;;;;;9.07;2.92;;;;;;;;;;5073749;28;20029;-63
2022/07/06 00:07:15;;;;;;;10.02;2.40;;;;;;;;;;5073232;28;20059;-63
2022/07/06 00:09:41;;;;;;;8.10;2.90;;;;;;;;;;5073566;28;20025;-63
2022/07/06 00:12:08;;;;;;;10.07;3.42;;;;;;;;;;5073420;28;20032;-63
2022/07/06 00:14:34;;;;;;;10.95;2.63;;;;;;;;;;5065314;28;20021;-63
2022/07/06 00:17:00;;;;;;;6.22;2.85;;;;;;;;;;5068713;28;20017;-63
2022/07/06 00:19:26;;;;;;;13.25;4.07;;;;;;;;;;5073162;28;20470;-63
2022/07/06 00:21:52;;;;;;;5.00;2.33;;;;;;;;;;5073339;28;20024;-63
2022/07/06 00:24:18;;;;;;;5.07;2.65;;;;;;;;;;5073158;28;20024;-63
2022/07/06 00:26:45;;;;;;;4.68;2.47;;;;;;;;;;5073058;28;20031;-63
2022/07/06 00:29:11;;;;;;;10.13;2.85;;;;;;;;;;5073222;28;20029;-63
2022/07/06 00:31:37;;;;;;;8.75;2.75;;;;;;;;;;5072804;28;20024;-63
2022/07/06 00:34:03;;;;;;;7.32;2.63;;;;;;;;;;5072076;28;20451;-63
2022/07/06 00:36:30;;;;;;;10.07;2.55;;;;;;;;;;5072792;28;20047;-63
2022/07/06 00:38:56;;;;;;;9.40;2.50;;;;;;;;;;5073222;28;20504;-63
2022/07/06 00:41:22;;;;;;;10.77;2.65;;;;;;;;;;5072299;28;20496;-63
2022/07/06 00:43:56;;;;;;;8.55;2.95;;;;;;;;;;5072170;28;20158;-63
2022/07/06 00:46:28;;;;;;;6.75;2.67;;;;;;;;;;5071363;28;20028;-63
2022/07/06 00:48:54;;;;;;;5.85;2.80;;;;;;;;;;5071614;28;20045;-63
2022/07/06 00:51:23;;;;;;;6.53;2.30;;;;;;;;;;5071386;28;20110;-63
2022/07/06 00:53:49;;;;;;;5.13;2.28;;;;;;;;;;5071516;28;20025;-63
2022/07/06 00:56:15;;;;;;;8.75;2.40;;;;;;;;;;5071207;28;20050;-63
2022/07/06 00:58:42;;;;;;;5.07;2.45;;;;;;;;;;5072846;28;20039;-63
2022/07/06 01:01:08;;;;;;;7.93;2.75;;;;;;;;;;5071340;28;20039;-63
2022/07/06 01:03:34;;;;;;;4.50;2.15;;;;;;;;;;5072383;28;20028;-63
2022/07/06 01:06:01;;;;;;;4.47;2.40;;;;;;;;;;5072353;28;20101;-63
2022/07/06 01:08:27;;;;;;;6.63;2.40;;;;;;;;;;5072263;28;20379;-63
2022/07/06 01:10:54;;;;;;;5.78;2.80;;;;;;;;;;5070800;28;20016;-63
2022/07/06 01:13:20;;;;;;;5.20;1.98;;;;;;;;;;5071111;28;20032;-63
2022/07/06 01:15:46;;;;;;;4.78;2.35;;;;;;;;;;5071839;28;20131;-63
2022/07/06 01:18:12;;;;;;;5.95;2.55;;;;;;;;;;5071511;28;20028;-63
2022/07/06 01:20:39;;;;;;;6.43;2.40;;;;;;;;;;5070891;28;20107;-63
2022/07/06 01:23:05;;;;;;;5.82;2.60;;;;;;;;;;5070918;28;20017;-64
2022/07/06 01:25:32;;;;;;;7.07;2.58;;;;;;;;;;5071581;28;20071;-64
2022/07/06 01:27:58;;;;;;;5.50;2.47;;;;;;;;;;5070735;28;20147;-63
2022/07/06 01:30:24;;;;;;;7.50;2.60;;;;;;;;;;5070428;28;20065;-63
2022/07/06 01:32:51;;;;;;;5.63;2.50;;;;;;;;;;5070798;28;20058;-63
2022/07/06 01:35:17;;;;;;;4.13;2.40;;;;;;;;;;5072097;28;20020;-63
2022/07/06 01:37:43;;;;;;;12.13;2.65;;;;;;;;;;5071822;28;20028;-63
2022/07/06 01:40:10;;;;;;;7.57;2.42;;;;;;;;;;5070577;28;20486;-63
2022/07/06 01:42:37;;;;;;;6.45;2.35;;;;;;;;;;5071876;28;20028;-63
2022/07/06 01:45:04;;;;;;;6.38;2.40;;;;;;;;;;5070905;28;20111;-63
2022/07/06 01:47:30;;;;;;;4.40;2.00;;;;;;;;;;5070298;28;20058;-63
2022/07/06 01:50:00;;;;;;;8.07;2.50;;;;;;;;;;5070773;28;20078;-63
2022/07/06 01:52:28;;;;;;;6.68;3.38;;;;;;;;;;5070464;28;20556;-63
2022/07/06 01:54:54;;;;;;;7.13;2.47;;;;;;;;;;5071529;28;20020;-63
2022/07/06 01:57:21;;;;;;;6.22;2.45;;;;;;;;;;5070496;28;20074;-64
2022/07/06 01:59:47;;;;;;;9.98;2.38;;;;;;;;;;5070307;28;20111;-63
2022/07/06 02:02:15;;;;;;;7.15;2.40;;;;;;;;;;5070668;28;20103;-63
2022/07/06 02:04:44;;;;;;;7.72;2.80;;;;;;;;;;5070437;28;20438;-63
2022/07/06 02:07:10;;;;;;;7.65;2.70;;;;;;;;;;5071693;28;20120;-63
2022/07/06 02:09:36;;;;;;;7.22;2.30;;;;;;;;;;5069671;28;20052;-63
2022/07/06 02:12:02;;;;;;;6.32;2.33;;;;;;;;;;5070631;28;20464;-63
2022/07/06 02:14:29;;;;;;;4.65;2.13;;;;;;;;;;5066142;28;20075;-63
2022/07/06 02:16:55;;;;;;;5.85;1.95;;;;;;;;;;5063430;28;20112;-63
2022/07/06 02:19:21;;;;;;;5.80;2.50;;;;;;;;;;5071722;28;20086;-63
2022/07/06 02:21:47;;;;;;;4.72;2.40;;;;;;;;;;5069912;28;20410;-63
2022/07/06 02:24:13;;;;;;;6.28;2.50;;;;;;;;;;5071310;28;20017;-63
2022/07/06 02:26:41;;;;;;;10.02;2.70;;;;;;;;;;5071278;28;20097;-63
2022/07/06 02:29:07;;;;;;;3.90;2.20;;;;;;;;;;5070140;28;20040;-63
2022/07/06 02:31:34;;;;;;;7.72;2.83;;;;;;;;;;5069960;28;20083;-63
2022/07/06 02:34:00;;;;;;;9.10;2.67;;;;;;;;;;5055479;28;20397;-64
2022/07/06 02:36:26;;;;;;;8.35;2.78;;;;;;;;;;5070270;28;20387;-63
2022/07/06 02:38:53;;;;;;;6.45;2.30;;;;;;;;;;5069343;28;20107;-63
2022/07/06 02:41:19;;;;;;;7.47;3.05;;;;;;;;;;5071519;28;20105;-63
2022/07/06 02:43:46;;;;;;;4.47;2.58;;;;;;;;;;5069860;28;20086;-63
2022/07/06 02:46:12;;;;;;;7.88;2.60;;;;;;;;;;5069799;28;20051;-63
2022/07/06 02:48:40;;;;;;;7.60;2.60;;;;;;;;;;5071300;28;20540;-63
2022/07/06 02:51:06;;;;;;;8.65;2.67;;;;;;;;;;5069758;28;20048;-63
2022/07/06 02:53:33;;;;;;;12.88;3.97;;;;;;;;;;5070103;28;20482;-63
2022/07/06 02:56:00;;;;;;;7.13;2.45;;;;;;;;;;5070102;28;20428;-63
2022/07/06 02:58:27;;;;;;;9.45;2.80;;;;;;;;;;5069957;28;20032;-63
2022/07/06 03:00:54;;;;;;;9.85;2.88;;;;;;;;;;5069906;28;20028;-63
2022/07/06 03:03:20;;;;;;;10.43;2.80;;;;;;;;;;5071403;28;20368;-63
2022/07/06 03:05:48;;;;;;;8.30;2.78;;;;;;;;;;5071435;28;20032;-63
2022/07/06 03:08:15;;;;;;;7.63;2.65;;;;;;;;;;5073324;28;20028;-63
2022/07/06 03:10:42;;;;;;;10.43;3.35;;;;;;;;;;5073430;28;20025;-63
2022/07/06 03:13:08;;;;;;;6.47;2.55;;;;;;;;;;5073261;28;20120;-63
2022/07/06 03:15:34;;;;;;;10.68;3.05;;;;;;;;;;5074596;28;20017;-63
2022/07/06 03:18:02;;;;;;;7.03;2.67;;;;;;;;;;5073051;28;20043;-63
2022/07/06 03:20:28;;;;;;;5.90;2.70;;;;;;;;;;5072996;28;20111;-63
2022/07/06 03:22:55;;;;;;;8.90;2.65;;;;;;;;;;5073084;28;20036;-63
2022/07/06 03:25:23;;;;;;;14.32;2.80;;;;;;;;;;5073407;28;20016;-63
2022/07/06 03:27:49;;;;;;;9.18;3.33;;;;;;;;;;5072467;28;20051;-63
2022/07/06 03:30:17;;;;;;;12.77;2.67;;;;;;;;;;5073106;28;20111;-64
2022/07/06 03:32:49;;;;;;;10.43;2.70;;;;;;;;;;5072695;28;20371;-63
2022/07/06 03:35:16;;;;;;;10.85;3.28;;;;;;;;;;5072796;28;20024;-63
2022/07/06 03:37:44;;;;;;;6.25;2.80;;;;;;;;;;5071392;28;20020;-63
2022/07/06 03:40:10;;;;;;;5.15;2.88;;;;;;;;;;5055933;28;20039;-63
2022/07/06 03:42:37;;;;;;;11.02;3.58;;;;;;;;;;5073921;28;20044;-63
2022/07/06 03:45:06;;;;;;;10.60;3.15;;;;;;;;;;5072390;28;20031;-63
2022/07/06 03:47:33;;;;;;;9.18;3.47;;;;;;;;;;5072204;28;20031;-63
2022/07/06 03:49:59;;;;;;;13.02;2.90;;;;;;;;;;5071473;28;20436;-63
2022/07/06 03:52:26;;;;;;;9.80;3.08;;;;;;;;;;5072549;28;20032;-63
2022/07/06 03:54:55;;;;;;;10.40;3.53;;;;;;;;;;5071853;28;20120;-63
2022/07/06 03:57:26;;;;;;;11.13;3.15;;;;;;;;;;5072461;28;20060;-63
2022/07/06 03:59:53;;;;;;;11.27;3.25;;;;;;;;;;5071716;28;20119;-63
2022/07/06 04:02:21;;;;;;;13.50;3.55;;;;;;;;;;5063873;28;20020;-63
2022/07/06 04:04:49;;;;;;;6.57;2.78;;;;;;;;;;5068803;28;20382;-63
2022/07/06 04:07:16;;;;;;;9.80;2.78;;;;;;;;;;5072159;28;20119;-63
2022/07/06 04:09:42;;;;;;;13.73;3.13;;;;;;;;;;5072349;28;20114;-63
2022/07/06 04:12:08;;;;;;;13.55;3.38;;;;;;;;;;5067647;28;20382;-63
2022/07/06 04:14:35;;;;;;;11.15;3.20;;;;;;;;;;5071904;28;20020;-63
2022/07/06 04:17:51;;;;;;;7.72;3.10;;;;;;;;;;5068876;28;20082;-63
2022/07/06 04:19:50;;;;;;;11.30;2.65;;;;;;;;;;5070846;28;20119;-63
2022/07/06 04:22:16;;;;;;;8.63;2.90;;;;;;;;;;5069732;28;20174;-63
2022/07/06 04:24:42;;;;;;;9.82;3.13;;;;;;;;;;5072069;28;20158;-63
2022/07/06 04:27:09;;;;;;;9.13;3.03;;;;;;;;;;5071466;28;20056;-63
2022/07/06 04:29:35;;;;;;;10.07;3.38;;;;;;;;;;5071969;28;20032;-63
2022/07/06 04:32:01;;;;;;;8.90;3.25;;;;;;;;;;5071974;28;20386;-63
2022/07/06 04:34:28;;;;;;;10.48;3.42;;;;;;;;;;5070129;28;20500;-63
2022/07/06 04:36:54;;;;;;;7.57;3.20;;;;;;;;;;5071102;28;20025;-63
2022/07/06 04:39:21;;;;;;;10.05;3.72;;;;;;;;;;5086544;28;20393;-63
2022/07/06 04:41:47;;;;;;;11.65;3.55;;;;;;;;;;5071798;28;20036;-63
2022/07/06 04:44:13;;;;;;;11.48;3.13;;;;;;;;;;5071521;28;20028;-63
2022/07/06 04:46:39;;;;;;;10.40;3.85;;;;;;;;;;5073017;28;20052;-63
2022/07/06 04:49:06;;;;;;;14.88;4.63;;;;;;;;;;5070799;28;20032;-63
2022/07/06 04:51:33;;;;;;;11.43;3.60;;;;;;;;;;5070652;28;20051;-63
2022/07/06 04:54:00;;;;;;;11.70;3.97;;;;;;;;;;5071351;28;20024;-63
2022/07/06 04:56:26;;;;;;;10.60;3.70;;;;;;;;;;5069008;28;20024;-63
2022/07/06 04:58:53;;;;;;;13.82;3.70;;;;;;;;;;5071030;28;20024;-63
2022/07/06 05:01:21;;;;;;;14.13;3.83;;;;;;;;;;5071275;28;20082;-63
2022/07/06 05:03:48;;;;;;;11.23;3.38;;;;;;;;;;5071073;28;20032;-63
2022/07/06 05:06:18;;;;;;;14.38;3.83;;;;;;;;;;5071113;28;20025;-63
2022/07/06 05:08:45;;;;;;;10.73;3.85;;;;;;;;;;5069547;28;20028;-63
2022/07/06 05:11:11;;;;;;;9.75;3.75;;;;;;;;;;5067216;28;20031;-63
2022/07/06 05:13:37;;;;;;;15.65;4.15;;;;;;;;;;5060797;28;20043;-63
2022/07/06 05:16:04;;;;;;;9.02;3.42;;;;;;;;;;5065496;28;20565;-63
2022/07/06 05:18:31;;;;;;;11.50;3.42;;;;;;;;;;5068031;28;20028;-63
2022/07/06 05:20:58;;;;;;;10.77;3.65;;;;;;;;;;5068717;28;20161;-62
2022/07/06 05:23:25;;;;;;;7.13;3.40;;;;;;;;;;5068006;28;20024;-63
2022/07/06 05:25:54;;;;;;;11.13;3.40;;;;;;;;;;5070063;28;20044;-63
2022/07/06 05:28:20;;;;;;;10.40;3.85;;;;;;;;;;5069695;28;20040;-63
2022/07/06 05:30:46;;;;;;;13.50;4.35;;;;;;;;;;5071405;28;20021;-63
2022/07/06 05:33:13;;;;;;;13.65;3.72;;;;;;;;;;5068685;28;20031;-63
2022/07/06 05:35:39;;;;;;;14.55;3.30;;;;;;;;;;5067558;28;20012;-63
2022/07/06 05:38:07;;;;;;;6.57;3.38;;;;;;;;;;5062924;28;20032;-63
2022/07/06 05:40:33;;;;;;;9.63;3.42;;;;;;;;;;5068745;28;20083;-63
2022/07/06 05:42:59;;;;;;;9.50;3.25;;;;;;;;;;5081944;28;20116;-63
2022/07/06 05:45:26;;;;;;;8.85;3.90;;;;;;;;;;5068731;28;20032;-63
2022/07/06 05:50:39;;;;;;;10.55;2.80;;;;;;;;;;5067537;28;20029;-63
2022/07/06 05:53:06;;;;;;;6.80;3.20;;;;;;;;;;5062911;28;20517;-63
2022/07/06 05:55:33;;;;;;;9.07;3.13;;;;;;;;;;5068280;28;20592;-63
2022/07/06 05:58:01;;;;;;;8.45;2.53;;;;;;;;;;5069347;28;20397;-63
2022/07/06 06:00:30;;;;;;;6.38;3.05;;;;;;;;;;5065208;28;20033;-63
2022/07/06 06:03:02;;;;;;;6.47;2.42;;;;;;;;;;5066237;28;20019;-63
2022/07/06 06:05:28;;;;;;;6.80;2.55;;;;;;;;;;5081607;28;20035;-63
2022/07/06 06:08:00;;;;;;;6.33;2.53;;;;;;;;;;5066335;28;20532;-63
2022/07/06 06:10:26;;;;;;;4.57;2.50;;;;;;;;;;5068839;28;20081;-63
2022/07/06 06:12:56;;;;;;;6.63;2.75;;;;;;;;;;5070832;28;20453;-63
2022/07/06 06:15:23;;;;;;;8.40;2.97;;;;;;;;;;5067444;28;20037;-63
2022/07/06 06:17:49;;;;;;;8.15;3.13;;;;;;;;;;5071159;28;20103;-63
2022/07/06 06:20:15;;;;;;;13.40;3.05;;;;;;;;;;5070685;28;20033;-63
2022/07/06 06:22:48;;;;;;;6.28;2.90;;;;;;;;;;5070544;28;20103;-63
2022/07/06 06:25:19;;;;;;;8.68;3.17;;;;;;;;;;5068855;28;20036;-65
2022/07/06 06:27:45;;;;;;;8.02;2.85;;;;;;;;;;5068200;28;20418;-63
2022/07/06 06:30:11;;;;;;;5.53;3.20;;;;;;;;;;5068855;28;20429;-63
2022/07/06 06:32:38;;;;;;;4.80;2.58;;;;;;;;;;5065616;28;20470;-63
2022/07/06 06:35:04;;;;;;;6.90;2.83;;;;;;;;;;5065598;28;20119;-63
2022/07/06 06:37:31;;;;;;;5.60;3.38;;;;;;;;;;5067451;28;20024;-63
2022/07/06 06:39:57;;;;;;;6.90;3.00;;;;;;;;;;5070638;28;20022;-63
2022/07/06 06:42:23;;;;;;;6.43;3.30;;;;;;;;;;5073227;28;20489;-63
2022/07/06 06:44:51;;;;;;;4.97;2.95;;;;;;;;;;5073102;28;20099;-63
2022/07/06 06:47:19;;;;;;;7.82;3.30;;;;;;;;;;5074786;28;20024;-63
2022/07/06 06:49:45;;;;;;;7.93;3.85;;;;;;;;;;5074243;28;20021;-63
2022/07/06 06:52:11;;;;;;;6.22;2.70;;;;;;;;;;5074900;28;20021;-63
2022/07/06 06:54:37;;;;;;;7.97;3.15;;;;;;;;;;5074191;28;20500;-63
2022/07/06 06:57:03;;;;;;;5.13;2.95;;;;;;;;;;5073204;28;20379;-63
2022/07/06 06:59:30;;;;;;;7.07;2.80;;;;;;;;;;5073949;28;20040;-63
2022/07/06 07:01:56;;;;;;;9.93;2.58;;;;;;;;;;5074440;28;20418;-63
2022/07/06 07:04:22;;;;;;;11.20;2.80;;;;;;;;;;5074510;28;20103;-63
2022/07/06 07:06:48;;;;;;;6.13;2.45;;;;;;;;;;5074227;28;20029;-63
2022/07/06 07:09:14;;;;;;;6.95;2.75;;;;;;;;;;5073039;28;20028;-63
2022/07/06 07:11:40;;;;;;;10.45;2.78;;;;;;;;;;5071310;28;20039;-63
2022/07/06 07:14:07;;;;;;;4.28;2.33;;;;;;;;;;5073905;28;20508;-63
2022/07/06 07:16:33;;;;;;;4.72;2.50;;;;;;;;;;5073763;28;20027;-63
2022/07/06 07:18:59;;;;;;;7.55;2.88;;;;;;;;;;5073796;28;20084;-63
2022/07/06 07:21:25;;;;;;;7.53;2.70;;;;;;;;;;5074284;28;20037;-63
2022/07/06 07:23:51;;;;;;;6.70;2.55;;;;;;;;;;5072711;28;20016;-63
2022/07/06 07:26:18;;;;;;;5.10;2.28;;;;;;;;;;5073460;28;20493;-63
2022/07/06 07:28:44;;;;;;;3.75;2.60;;;;;;;;;;5072390;28;20054;-63
2022/07/06 07:31:10;;;;;;;6.05;2.90;;;;;;;;;;5067935;28;20028;-63
2022/07/06 07:33:36;;;;;;;5.15;2.55;;;;;;;;;;5073288;28;20056;-63
2022/07/06 07:36:02;;;;;;;9.02;2.90;;;;;;;;;;5073496;28;20024;-63
2022/07/06 07:38:28;;;;;;;11.52;4.18;;;;;;;;;;5071815;28;20111;-63
2022/07/06 07:40:55;;;;;;;7.13;2.55;;;;;;;;;;5072952;28;20029;-63
2022/07/06 07:43:21;;;;;;;7.05;2.75;;;;;;;;;;5072860;28;20020;-63
2022/07/06 07:45:48;;;;;;;3.78;2.78;;;;;;;;;;5072488;28;20131;-63
2022/07/06 07:48:15;;;;;;;4.30;1.88;;;;;;;;;;5073117;28;20056;-63
2022/07/06 07:50:41;;;;;;;4.57;2.83;;;;;;;;;;5072675;28;20020;-63
2022/07/06 07:53:07;;;;;;;7.75;2.35;;;;;;;;;;5072803;28;20032;-63
2022/07/06 07:55:33;;;;;;;4.03;2.00;;;;;;;;;;5072924;28;20082;-62
2022/07/06 07:57:59;;;;;;;5.53;2.30;;;;;;;;;;5073856;28;20028;-62
2022/07/06 08:00:26;;;;;;;5.03;2.33;;;;;;;;;;5074052;28;20047;-62
2022/07/06 08:02:54;;;;;;;3.50;2.03;;;;;;;;;;5073354;28;20025;-62
2022/07/06 08:05:20;;;;;;;5.85;2.10;;;;;;;;;;5073176;28;20032;-62
2022/07/06 08:07:46;;;;;;;3.97;2.08;;;;;;;;;;5073667;28;20029;-62
2022/07/06 08:10:12;;;;;;;5.50;2.17;;;;;;;;;;5072841;28;20044;-62
2022/07/06 08:12:38;;;;;;;4.05;2.03;;;;;;;;;;5073186;28;20430;-63
2022/07/06 08:15:05;;;;;;;3.72;1.88;;;;;;;;;;5073830;28;20032;-62
2022/07/06 08:17:31;;;;;;;4.28;2.20;;;;;;;;;;5073507;28;20056;-62
2022/07/06 08:19:58;;;;;;;3.85;2.08;;;;;;;;;;5073385;28;20031;-62
2022/07/06 08:22:24;;;;;;;4.07;2.03;;;;;;;;;;5073437;28;20390;-62
2022/07/06 08:24:50;;;;;;;3.63;2.00;;;;;;;;;;5072224;28;20099;-61
2022/07/06 08:27:16;;;;;;;6.88;2.53;;;;;;;;;;5073336;28;20510;-61
2022/07/06 08:29:43;;;;;;;4.15;1.90;;;;;;;;;;5071076;28;20028;-61
2022/07/06 08:32:09;;;;;;;5.25;2.30;;;;;;;;;;5073468;28;20029;-61
2022/07/06 08:34:35;;;;;;;2.85;1.73;;;;;;;;;;5093704;28;20056;-61
2022/07/06 08:37:01;;;;;;;5.43;2.00;;;;;;;;;;5075000;28;20023;-61
2022/07/06 08:39:27;;;;;;;4.70;2.00;;;;;;;;;;5071913;28;20036;-62
2022/07/06 08:41:55;;;;;;;3.55;2.05;;;;;;;;;;5073440;28;20028;-62
2022/07/06 08:44:21;;;;;;;3.63;2.47;;;;;;;;;;5081890;28;20479;-61
2022/07/06 08:46:49;;;;;;;5.65;1.98;;;;;;;;;;5077002;28;20099;-61
2022/07/06 08:49:17;;;;;;;5.43;1.80;;;;;;;;;;5071866;28;20067;-61
2022/07/06 08:51:43;;;;;;;2.92;1.73;;;;;;;;;;5071687;28;20025;-61
2022/07/06 08:54:11;;;;;;;6.07;2.10;;;;;;;;;;5071698;28;20028;-61
2022/07/06 08:56:38;;;;;;;6.03;2.13;;;;;;;;;;5073113;28;20091;-61
2022/07/06 08:59:04;;;;;;;4.65;2.10;;;;;;;;;;5070565;28;20536;-61
2022/07/06 09:01:30;;;;;;;6.78;2.15;;;;;;;;;;5073037;28;20433;-61
2022/07/06 09:03:57;;;;;;;6.25;1.92;;;;;;;;;;5072015;28;20056;-61
2022/07/06 09:06:24;;;;;;;3.63;2.17;;;;;;;;;;5072029;28;20024;-61
2022/07/06 09:08:52;;;;;;;2.42;1.77;;;;;;;;;;5072078;28;20032;-61
2022/07/06 09:11:18;;;;;;;3.72;2.05;;;;;;;;;;5072865;28;20031;-61
2022/07/06 09:13:45;;;;;;;3.75;2.55;;;;;;;;;;5072648;28;20025;-61
2022/07/06 09:16:12;;;;;;;2.90;2.03;;;;;;;;;;5071413;28;20074;-61
2022/07/06 09:18:39;;;;;;;5.68;1.95;;;;;;;;;;5072750;28;20078;-61
2022/07/06 09:21:06;;;;;;;1.55;1.20;;;;;;;;;;5071098;28;20032;-61
2022/07/06 09:23:33;;;;;;;6.07;1.80;;;;;;;;;;5071410;28;20040;-61
2022/07/06 09:26:01;;;;;;;2.60;1.75;;;;;;;;;;5071395;28;20504;-61
2022/07/06 09:28:41;;;;;;;2.55;1.92;;;;;;;;;;5071434;28;20044;-61
2022/07/06 09:31:07;;;;;;;3.15;1.98;;;;;;;;;;5066522;28;20029;-61
2022/07/06 09:33:34;;;;;;;3.75;1.73;;;;;;;;;;5066938;28;20079;-61
2022/07/06 09:36:01;;;;;;;2.63;1.63;;;;;;;;;;5070607;28;20389;-61
2022/07/06 09:38:28;;;;;;;4.60;2.45;;;;;;;;;;5070274;28;20031;-61
2022/07/06 09:40:54;;;;;;;4.22;1.90;;;;;;;;;;5070525;28;20481;-61
2022/07/06 09:43:22;;;;;;;3.95;1.90;;;;;;;;;;5068966;28;20554;-61
2022/07/06 09:45:52;;;;;;;2.63;1.77;;;;;;;;;;5070462;28;20731;-61
2022/07/06 09:48:22;;;;;;;4.25;1.90;;;;;;;;;;5069766;28;20044;-61
2022/07/06 09:50:53;;;;;;;5.72;2.03;;;;;;;;;;5070450;28;20025;-61
2022/07/06 09:53:19;;;;;;;6.28;1.88;;;;;;;;;;5070051;28;20166;-61
2022/07/06 09:55:46;;;;;;;4.95;1.90;;;;;;;;;;5070539;28;20036;-61
2022/07/06 09:58:13;;;;;;;6.30;1.52;;;;;;;;;;5068816;28;20451;-61
2022/07/06 10:00:39;;;;;;;3.80;1.98;;;;;;;;;;5070457;28;20032;-61
2022/07/06 10:03:06;;;;;;;4.22;1.73;;;;;;;;;;5070114;28;20024;-61
2022/07/06 10:05:32;;;;;;;4.22;1.73;;;;;;;;;;5070533;28;20029;-61
2022/07/06 10:08:00;;;;;;;6.90;1.92;;;;;;;;;;5068727;28;20389;-61
2022/07/06 10:10:30;;;;;;;2.13;1.40;;;;;;;;;;5067628;28;20492;-61
2022/07/06 10:12:57;;;;;;;4.78;1.55;;;;;;;;;;5070586;28;20021;-61
2022/07/06 10:15:25;;;;;;;3.30;1.80;;;;;;;;;;5070694;28;20027;-61
2022/07/06 10:17:51;;;;;;;6.07;1.80;;;;;;;;;;5074118;28;20032;-61
2022/07/06 10:20:19;;;;;;;3.95;1.63;;;;;;;;;;5073837;28;20013;-61
2022/07/06 10:22:45;;;;;;;2.50;1.25;;;;;;;;;;5073536;28;20056;-61
2022/07/06 10:25:11;;;;;;;2.25;1.20;;;;;;;;;;5072604;28;20524;-61
2022/07/06 10:27:38;;;;;;;2.85;1.35;;;;;;;;;;5069014;28;20402;-61
2022/07/06 10:30:05;;;;;;;1.83;1.10;;;;;;;;;;5071229;28;20413;-60
2022/07/06 10:32:31;;;;;;;2.78;1.88;;;;;;;;;;5074350;28;20024;-60
2022/07/06 10:34:58;;;;;;;2.70;1.60;;;;;;;;;;5070821;28;20074;-60
2022/07/06 10:37:28;;;;;;;1.77;1.40;;;;;;;;;;5073745;28;20040;-61
2022/07/06 10:42:42;;;;;;;3.08;1.10;;;;;;;;;;5080431;28;20031;-61
2022/07/06 10:45:09;;;;;;;1.52;1.10;;;;;;;;;;5073967;28;20422;-61
2022/07/06 10:47:36;;;;;;;4.60;1.10;;;;;;;;;;5072167;28;20478;-61
2022/07/06 10:50:03;;;;;;;4.82;1.33;;;;;;;;;;5070671;28;20028;-61
2022/07/06 10:52:47;;;;;;;1.60;1.10;;;;;;;;;;5069922;28;20024;-61
2022/07/06 10:55:29;;;;;;;3.20;1.05;;;;;;;;;;5069138;28;20077;-61
2022/07/06 10:57:55;;;;;;;4.10;1.20;;;;;;;;;;5056827;28;20397;-61
2022/07/06 11:00:21;;;;;;;2.10;0.90;;;;;;;;;;5058085;28;20020;-61
2022/07/06 11:02:47;;;;;;;1.90;1.00;;;;;;;;;;5065204;28;20020;-61
2022/07/06 11:05:33;;;;;;;1.75;1.10;;;;;;;;;;5062103;28;20056;-60
2022/07/06 11:08:02;;;;;;;4.70;1.38;;;;;;;;;;5065599;28;20033;-61
2022/07/06 11:10:42;;;;;;;1.75;1.42;;;;;;;;;;5067435;28;20107;-61
2022/07/06 11:13:08;;;;;;;3.35;1.55;;;;;;;;;;5065416;28;20025;-61
2022/07/06 11:15:49;;;;;;;2.72;1.50;;;;;;;;;;5061917;28;20610;-61
2022/07/06 11:18:19;;;;;;;1.45;1.15;;;;;;;;;;5062115;28;20036;-61
2022/07/06 11:21:05;;;;;;;2.70;1.45;;;;;;;;;;5059894;28;20067;-61
2022/07/06 11:23:31;;;;;;;4.15;1.10;;;;;;;;;;5060661;28;20025;-61
2022/07/06 11:25:58;;;;;;;1.58;1.13;;;;;;;;;;5060265;28;20032;-61
2022/07/06 11:28:26;;;;;;;2.85;1.23;;;;;;;;;;5063601;28;20414;-61
2022/07/06 11:30:52;;;;;;;1.80;1.15;;;;;;;;;;5058894;28;20021;-61
2022/07/06 11:33:28;;;;;;;3.28;1.10;;;;;;;;;;5059675;28;20033;-61
2022/07/06 11:36:11;;;;;;;1.20;1.00;;;;;;;;;;5065392;28;20029;-61
2022/07/06 11:38:37;;;;;;;;;;;;;;;;;;5060185;28;20410;-61
2022/07/06 11:41:03;;;;;;;1.83;1.38;;;;;;;;;;5055165;28;20381;-61
2022/07/06 11:43:29;;;;;;;9.25;1.70;;;;;;;;;;5056331;28;20033;-61
2022/07/06 11:45:55;;;;;;;3.75;1.25;;;;;;;;;;5055668;28;20414;-61
2022/07/06 11:48:22;;;;;;;3.58;1.13;;;;;;;;;;5061349;28;20488;-61
2022/07/06 11:51:03;;;;;;;4.45;1.25;;;;;;;;;;5058325;28;20013;-61
2022/07/06 11:53:30;;;;;;;3.15;1.45;;;;;;;;;;5056891;28;20048;-61
2022/07/06 11:56:02;;;;;;;1.65;1.00;;;;;;;;;;5057588;28;20032;-61
2022/07/06 11:58:29;;;;;;;6.88;1.52;;;;;;;;;;5058569;28;20086;-61
2022/07/06 12:01:08;;;;;;;2.00;1.10;;;;;;;;;;5053351;28;20032;-61
2022/07/06 12:03:35;;;;;;;2.55;1.08;;;;;;;;;;5055323;28;20029;-61
2022/07/06 12:06:02;;;;;;;3.30;1.05;;;;;;;;;;5058650;28;20108;-61
2022/07/06 12:08:28;;;;;;;1.63;1.02;;;;;;;;;;5055183;28;20131;-61
2022/07/06 12:10:55;;;;;;;3.33;1.67;;;;;;;;;;5056771;28;20028;-61
2022/07/06 12:13:21;;;;;;;4.18;1.33;;;;;;;;;;5061131;28;20441;-61
2022/07/06 12:15:47;;;;;;;4.28;1.35;;;;;;;;;;5055528;28;20020;-61
2022/07/06 12:18:13;;;;;;;3.72;1.45;;;;;;;;;;5056641;28;20493;-61
2022/07/06 12:20:40;;;;;;;2.70;1.45;;;;;;;;;;5059331;28;20056;-61
2022/07/06 12:23:07;;;;;;;1.00;0.95;;;;;;;;;;5058838;28;20025;-61
2022/07/06 12:25:37;;;;;;;4.15;1.25;;;;;;;;;;5060032;28;20021;-61
2022/07/06 12:28:04;;;;;;;4.20;1.13;;;;;;;;;;5060856;28;20490;-61
2022/07/06 12:30:30;;;;;;;3.92;1.30;;;;;;;;;;5058922;28;20036;-61
2022/07/06 12:33:15;;;;;;;2.65;1.20;;;;;;;;;;5056957;28;20028;-61
2022/07/06 12:35:44;;;;;;;6.63;1.65;;;;;;;;;;5059947;28;20098;-61
2022/07/06 12:38:10;;;;;;;3.00;1.27;;;;;;;;;;5057742;28;20021;-61
2022/07/06 12:40:37;;;;;;;1.48;1.10;;;;;;;;;;5061454;28;20046;-61
2022/07/06 12:43:04;;;;;;;1.17;1.00;;;;;;;;;;5071288;28;20025;-61
2022/07/06 12:45:30;;;;;;;4.03;1.15;;;;;;;;;;5061161;28;20044;-61
2022/07/06 12:48:00;;;;;;;7.72;1.20;;;;;;;;;;5061119;28;20052;-61
2022/07/06 12:50:33;;;;;;;1.55;1.10;;;;;;;;;;5070784;28;20123;-61
2022/07/06 12:52:59;;;;;;;2.70;1.30;;;;;;;;;;5070217;28;20401;-60
2022/07/06 12:55:27;;;;;;;2.45;1.20;;;;;;;;;;5067711;28;20409;-61
2022/07/06 12:57:53;;;;;;;3.40;1.20;;;;;;;;;;5070166;28;20051;-61
2022/07/06 13:00:21;;;;;;;1.52;1.00;;;;;;;;;;5069506;28;20073;-61
2022/07/06 13:02:48;;;;;;;1.65;1.15;;;;;;;;;;5070103;28;20082;-61
2022/07/06 13:05:15;;;;;;;1.70;1.05;;;;;;;;;;5069214;28;20013;-60
2022/07/06 13:07:48;;;;;;;1.98;1.13;;;;;;;;;;5069821;28;20028;-60
2022/07/06 13:10:16;;;;;;;3.58;1.10;;;;;;;;;;5067498;28;20504;-61
2022/07/06 13:12:42;;;;;;;7.25;0.90;;;;;;;;;;5070281;28;20016;-61
2022/07/06 13:15:09;;;;;;;3.20;1.10;;;;;;;;;;5069423;28;20150;-61
2022/07/06 13:17:37;;;;;;;2.03;1.10;;;;;;;;;;5070494;28;20017;-61
2022/07/06 13:20:03;;;;;;;4.15;1.38;;;;;;;;;;5070244;28;20032;-61
2022/07/06 13:22:29;;;;;;;2.35;0.80;;;;;;;;;;5070782;28;20017;-61
2022/07/06 13:24:56;;;;;;;2.50;1.20;;;;;;;;;;5070068;28;20051;-61
2022/07/06 13:27:22;;;;;;;1.45;1.20;;;;;;;;;;5070308;28;20032;-61
2022/07/06 13:29:48;;;;;;;1.00;0.70;;;;;;;;;;5069847;28;20028;-61
2022/07/06 13:32:14;;;;;;;2.50;1.40;;;;;;;;;;5070816;28;20012;-61
2022/07/06 13:34:40;;;;;;;2.22;1.20;;;;;;;;;;5070709;28;20509;-61
2022/07/06 13:37:06;;;;;;;4.28;1.30;;;;;;;;;;5066569;28;20565;-61
2022/07/06 13:39:33;;;;;;;4.65;1.67;;;;;;;;;;5069432;28;20028;-61
2022/07/06 13:41:59;;;;;;;3.53;1.65;;;;;;;;;;5070799;28;20028;-61
2022/07/06 13:44:25;;;;;;;3.38;1.42;;;;;;;;;;5069996;28;20039;-61
2022/07/06 13:46:51;;;;;;;3.63;1.30;;;;;;;;;;5070142;28;20044;-61
2022/07/06 13:49:17;;;;;;;3.10;1.20;;;;;;;;;;5069585;28;20020;-61
2022/07/06 13:51:44;;;;;;;3.45;1.23;;;;;;;;;;5066071;28;20024;-60
2022/07/06 13:54:10;;;;;;;2.85;1.13;;;;;;;;;;5067686;28;20024;-61
2022/07/06 13:56:37;;;;;;;1.45;1.00;;;;;;;;;;5069307;28;20142;-61
2022/07/06 13:59:04;;;;;;;1.27;1.13;;;;;;;;;;5068587;28;21044;-61
2022/07/06 14:01:30;;;;;;;2.17;1.10;;;;;;;;;;5069706;28;20075;-67
2022/07/06 14:03:56;;;;;;;1.95;1.13;;;;;;;;;;5069878;28;20032;-73
2022/07/06 14:06:22;;;;;;;3.47;1.00;;;;;;;;;;5070143;28;20111;-62
2022/07/06 14:08:48;;;;;;;3.70;1.00;;;;;;;;;;5069845;28;20034;-62
2022/07/06 14:11:14;;;;;;;1.05;1.00;;;;;;;;;;5069619;28;20032;-62
2022/07/06 14:13:40;;;;;;;1.67;1.20;;;;;;;;;;5069685;28;20112;-62
2022/07/06 14:16:07;;;;;;;1.00;0.80;;;;;;;;;;5069463;28;20032;-62
2022/07/06 14:18:33;;;;;;;1.73;1.00;;;;;;;;;;5070028;28;20029;-62
2022/07/06 14:21:00;;;;;;;3.85;1.73;;;;;;;;;;5069867;28;20021;-62
2022/07/06 14:23:26;;;;;;;3.83;1.50;;;;;;;;;;5069697;28;20482;-62
2022/07/06 14:25:54;;;;;;;1.48;1.10;;;;;;;;;;5069952;28;20033;-62
2022/07/06 14:28:20;;;;;;;2.22;1.40;;;;;;;;;;5067534;28;20036;-62
2022/07/06 14:30:47;;;;;;;1.52;1.13;;;;;;;;;;5069482;28;20024;-62
2022/07/06 14:33:13;;;;;;;5.43;1.38;;;;;;;;;;5069616;28;20426;-62
2022/07/06 14:35:44;;;;;;;1.90;1.23;;;;;;;;;;5069873;28;20035;-62
2022/07/06 14:38:10;;;;;;;1.98;1.70;;;;;;;;;;5069584;28;20535;-63
2022/07/06 14:40:36;;;;;;;3.80;1.70;;;;;;;;;;5069382;28;20020;-62
2022/07/06 14:43:03;;;;;;;5.15;1.67;;;;;;;;;;5069244;28;20039;-63
2022/07/06 14:45:29;;;;;;;2.70;1.40;;;;;;;;;;5069587;28;20031;-62
2022/07/06 14:47:56;;;;;;;4.65;1.70;;;;;;;;;;5069739;28;20457;-63